sensor_id;sensor_type;location;lat;lon;timestamp;P1;durP1;ratioP1;P2;durP2;ratioP2
679;SDS011;322;48.846;9.230;2023-11-19T00:00:27;8.60;;;2.63;;
679;SDS011;322;48.846;9.230;2023-11-19T00:02:55;9.47;;;2.30;;
679;SDS011;322;48.846;9.230;2023-11-19T00:05:23;8.80;;;2.50;;
679;SDS011;322;48.846;9.230;2023-11-19T00:07:51;8.27;;;2.60;;
679;SDS011;322;48.846;9.230;2023-11-19T00:10:19;8.30;;;2.47;;
679;SDS011;322;48.846;9.230;2023-11-19T00:12:48;7.63;;;2.83;;
679;SDS011;322;48.846;9.230;2023-11-19T00:15:16;9.03;;;2.97;;
679;SDS011;322;48.846;9.230;2023-11-19T00:17:47;8.90;;;3.00;;
679;SDS011;322;48.846;9.230;2023-11-19T00:20:16;8.20;;;2.87;;
679;SDS011;322;48.846;9.230;2023-11-19T00:22:45;8.53;;;2.63;;
679;SDS011;322;48.846;9.230;2023-11-19T00:25:16;8.80;;;2.70;;
679;SDS011;322;48.846;9.230;2023-11-19T00:27:44;7.87;;;2.53;;
679;SDS011;322;48.846;9.230;2023-11-19T00:30:12;9.00;;;2.83;;
679;SDS011;322;48.846;9.230;2023-11-19T00:32:41;7.40;;;2.50;;
679;SDS011;322;48.846;9.230;2023-11-19T00:35:11;11.03;;;3.00;;
679;SDS011;322;48.846;9.230;2023-11-19T00:37:40;9.50;;;2.73;;
679;SDS011;322;48.846;9.230;2023-11-19T00:40:11;9.23;;;2.67;;
679;SDS011;322;48.846;9.230;2023-11-19T00:42:40;7.30;;;2.47;;
679;SDS011;322;48.846;9.230;2023-11-19T00:45:10;9.20;;;3.20;;
679;SDS011;322;48.846;9.230;2023-11-19T00:47:39;7.90;;;2.93;;
679;SDS011;322;48.846;9.230;2023-11-19T00:50:07;9.30;;;3.00;;
679;SDS011;322;48.846;9.230;2023-11-19T00:52:38;7.77;;;3.00;;
679;SDS011;322;48.846;9.230;2023-11-19T00:55:06;8.47;;;2.77;;
679;SDS011;322;48.846;9.230;2023-11-19T00:57:35;8.30;;;2.57;;
679;SDS011;322;48.846;9.230;2023-11-19T01:00:06;7.13;;;2.23;;
679;SDS011;322;48.846;9.230;2023-11-19T01:02:45;10.37;;;3.37;;
679;SDS011;322;48.846;9.230;2023-11-19T01:05:14;7.80;;;2.50;;
679;SDS011;322;48.846;9.230;2023-11-19T01:07:43;8.30;;;2.80;;
679;SDS011;322;48.846;9.230;2023-11-19T01:10:11;8.07;;;2.43;;
679;SDS011;322;48.846;9.230;2023-11-19T01:12:39;9.27;;;3.17;;
679;SDS011;322;48.846;9.230;2023-11-19T01:15:07;7.80;;;2.03;;
679;SDS011;322;48.846;9.230;2023-11-19T01:17:36;7.70;;;2.50;;
679;SDS011;322;48.846;9.230;2023-11-19T01:20:05;7.70;;;2.10;;
679;SDS011;322;48.846;9.230;2023-11-19T01:22:34;7.97;;;2.20;;
679;SDS011;322;48.846;9.230;2023-11-19T01:25:04;8.77;;;2.37;;
679;SDS011;322;48.846;9.230;2023-11-19T01:27:33;8.77;;;2.30;;
679;SDS011;322;48.846;9.230;2023-11-19T01:30:01;7.80;;;2.33;;
679;SDS011;322;48.846;9.230;2023-11-19T01:32:30;7.90;;;2.53;;
679;SDS011;322;48.846;9.230;2023-11-19T01:34:58;9.93;;;2.53;;
679;SDS011;322;48.846;9.230;2023-11-19T01:37:26;8.67;;;2.70;;
679;SDS011;322;48.846;9.230;2023-11-19T01:39:54;8.23;;;2.70;;
679;SDS011;322;48.846;9.230;2023-11-19T01:42:26;8.40;;;2.10;;
679;SDS011;322;48.846;9.230;2023-11-19T01:44:57;7.10;;;1.90;;
679;SDS011;322;48.846;9.230;2023-11-19T01:47:27;7.13;;;1.90;;
679;SDS011;322;48.846;9.230;2023-11-19T01:49:57;7.40;;;2.20;;
679;SDS011;322;48.846;9.230;2023-11-19T01:52:26;8.27;;;2.70;;
679;SDS011;322;48.846;9.230;2023-11-19T01:54:55;6.90;;;1.87;;
679;SDS011;322;48.846;9.230;2023-11-19T01:57:23;7.37;;;1.77;;
679;SDS011;322;48.846;9.230;2023-11-19T01:59:53;8.13;;;2.37;;
679;SDS011;322;48.846;9.230;2023-11-19T02:02:21;7.73;;;2.60;;
679;SDS011;322;48.846;9.230;2023-11-19T02:04:50;7.80;;;2.40;;
679;SDS011;322;48.846;9.230;2023-11-19T02:07:20;9.83;;;2.20;;
679;SDS011;322;48.846;9.230;2023-11-19T02:09:48;7.00;;;1.83;;
679;SDS011;322;48.846;9.230;2023-11-19T02:12:16;7.93;;;2.17;;
679;SDS011;322;48.846;9.230;2023-11-19T02:14:46;8.00;;;2.13;;
679;SDS011;322;48.846;9.230;2023-11-19T02:17:28;7.23;;;2.20;;
679;SDS011;322;48.846;9.230;2023-11-19T02:19:58;7.60;;;2.00;;
679;SDS011;322;48.846;9.230;2023-11-19T02:22:26;7.20;;;2.10;;
679;SDS011;322;48.846;9.230;2023-11-19T02:24:55;7.20;;;2.10;;
679;SDS011;322;48.846;9.230;2023-11-19T02:27:30;8.00;;;2.17;;
679;SDS011;322;48.846;9.230;2023-11-19T02:30:08;8.07;;;2.00;;
679;SDS011;322;48.846;9.230;2023-11-19T02:32:38;8.37;;;3.40;;
679;SDS011;322;48.846;9.230;2023-11-19T02:35:07;7.70;;;3.10;;
679;SDS011;322;48.846;9.230;2023-11-19T02:37:35;8.70;;;2.93;;
679;SDS011;322;48.846;9.230;2023-11-19T02:40:04;7.50;;;2.57;;
679;SDS011;322;48.846;9.230;2023-11-19T02:42:35;7.93;;;2.53;;
679;SDS011;322;48.846;9.230;2023-11-19T02:45:05;8.27;;;2.70;;
679;SDS011;322;48.846;9.230;2023-11-19T02:47:34;8.37;;;2.73;;
679;SDS011;322;48.846;9.230;2023-11-19T02:50:02;7.67;;;2.13;;
679;SDS011;322;48.846;9.230;2023-11-19T02:52:33;7.80;;;2.00;;
679;SDS011;322;48.846;9.230;2023-11-19T02:55:04;8.60;;;2.37;;
679;SDS011;322;48.846;9.230;2023-11-19T02:57:36;8.27;;;2.60;;
679;SDS011;322;48.846;9.230;2023-11-19T03:00:06;7.73;;;2.17;;
679;SDS011;322;48.846;9.230;2023-11-19T03:05:11;9.33;;;3.07;;
679;SDS011;322;48.846;9.230;2023-11-19T03:07:41;7.93;;;2.77;;
679;SDS011;322;48.846;9.230;2023-11-19T03:10:10;7.77;;;2.60;;
679;SDS011;322;48.846;9.230;2023-11-19T03:12:40;7.43;;;2.63;;
679;SDS011;322;48.846;9.230;2023-11-19T03:15:10;8.67;;;3.00;;
679;SDS011;322;48.846;9.230;2023-11-19T03:17:39;8.47;;;2.57;;
679;SDS011;322;48.846;9.230;2023-11-19T03:20:08;7.90;;;3.00;;
679;SDS011;322;48.846;9.230;2023-11-19T03:22:37;8.90;;;2.80;;
679;SDS011;322;48.846;9.230;2023-11-19T03:25:05;8.27;;;2.67;;
679;SDS011;322;48.846;9.230;2023-11-19T03:27:35;8.10;;;2.90;;
679;SDS011;322;48.846;9.230;2023-11-19T03:30:03;8.20;;;2.77;;
679;SDS011;322;48.846;9.230;2023-11-19T03:32:33;7.20;;;2.37;;
679;SDS011;322;48.846;9.230;2023-11-19T03:35:01;7.30;;;2.40;;
679;SDS011;322;48.846;9.230;2023-11-19T03:37:30;8.23;;;3.33;;
679;SDS011;322;48.846;9.230;2023-11-19T03:39:59;8.00;;;2.43;;
679;SDS011;322;48.846;9.230;2023-11-19T03:42:28;9.23;;;3.00;;
679;SDS011;322;48.846;9.230;2023-11-19T03:44:57;7.90;;;2.50;;
679;SDS011;322;48.846;9.230;2023-11-19T03:47:25;7.50;;;2.40;;
679;SDS011;322;48.846;9.230;2023-11-19T03:49:55;11.63;;;3.73;;
679;SDS011;322;48.846;9.230;2023-11-19T03:52:23;10.77;;;4.13;;
679;SDS011;322;48.846;9.230;2023-11-19T03:54:51;9.37;;;3.47;;
679;SDS011;322;48.846;9.230;2023-11-19T03:57:21;21.77;;;4.53;;
679;SDS011;322;48.846;9.230;2023-11-19T03:59:49;8.60;;;3.37;;
679;SDS011;322;48.846;9.230;2023-11-19T04:02:17;10.10;;;3.87;;
679;SDS011;322;48.846;9.230;2023-11-19T04:04:45;10.33;;;4.20;;
679;SDS011;322;48.846;9.230;2023-11-19T04:07:15;9.40;;;3.60;;
679;SDS011;322;48.846;9.230;2023-11-19T04:09:43;8.50;;;3.33;;
679;SDS011;322;48.846;9.230;2023-11-19T04:12:12;8.43;;;3.40;;
679;SDS011;322;48.846;9.230;2023-11-19T04:14:40;7.93;;;2.63;;
679;SDS011;322;48.846;9.230;2023-11-19T04:17:09;8.57;;;2.90;;
679;SDS011;322;48.846;9.230;2023-11-19T04:19:37;7.97;;;2.67;;
679;SDS011;322;48.846;9.230;2023-11-19T04:22:07;8.63;;;2.73;;
679;SDS011;322;48.846;9.230;2023-11-19T04:24:37;8.33;;;2.90;;
679;SDS011;322;48.846;9.230;2023-11-19T04:27:05;9.43;;;2.60;;
679;SDS011;322;48.846;9.230;2023-11-19T04:29:33;8.57;;;2.90;;
679;SDS011;322;48.846;9.230;2023-11-19T04:32:01;8.03;;;2.57;;
679;SDS011;322;48.846;9.230;2023-11-19T04:34:28;9.20;;;2.87;;
679;SDS011;322;48.846;9.230;2023-11-19T04:36:56;7.90;;;2.70;;
679;SDS011;322;48.846;9.230;2023-11-19T04:39:38;7.67;;;2.30;;
679;SDS011;322;48.846;9.230;2023-11-19T04:42:07;9.33;;;2.70;;
679;SDS011;322;48.846;9.230;2023-11-19T04:44:34;7.93;;;2.90;;
679;SDS011;322;48.846;9.230;2023-11-19T04:47:02;7.80;;;2.53;;
679;SDS011;322;48.846;9.230;2023-11-19T04:49:31;6.97;;;1.70;;
679;SDS011;322;48.846;9.230;2023-11-19T04:51:59;6.33;;;1.20;;
679;SDS011;322;48.846;9.230;2023-11-19T04:54:29;6.47;;;1.60;;
679;SDS011;322;48.846;9.230;2023-11-19T04:56:58;6.87;;;1.70;;
679;SDS011;322;48.846;9.230;2023-11-19T04:59:26;7.90;;;1.47;;
679;SDS011;322;48.846;9.230;2023-11-19T05:01:54;6.67;;;1.30;;
679;SDS011;322;48.846;9.230;2023-11-19T05:04:22;6.70;;;1.43;;
679;SDS011;322;48.846;9.230;2023-11-19T05:06:50;6.20;;;1.33;;
679;SDS011;322;48.846;9.230;2023-11-19T05:09:18;7.53;;;1.10;;
679;SDS011;322;48.846;9.230;2023-11-19T05:11:46;7.63;;;1.40;;
679;SDS011;322;48.846;9.230;2023-11-19T05:14:19;6.23;;;1.20;;
679;SDS011;322;48.846;9.230;2023-11-19T05:16:47;6.60;;;1.00;;
679;SDS011;322;48.846;9.230;2023-11-19T05:19:16;7.10;;;1.20;;
679;SDS011;322;48.846;9.230;2023-11-19T05:21:44;6.30;;;1.00;;
679;SDS011;322;48.846;9.230;2023-11-19T05:24:12;6.00;;;0.70;;
679;SDS011;322;48.846;9.230;2023-11-19T05:26:40;5.67;;;0.70;;
679;SDS011;322;48.846;9.230;2023-11-19T05:29:08;6.00;;;0.80;;
679;SDS011;322;48.846;9.230;2023-11-19T05:31:37;5.73;;;0.50;;
679;SDS011;322;48.846;9.230;2023-11-19T05:34:09;5.53;;;0.40;;
679;SDS011;322;48.846;9.230;2023-11-19T05:36:38;5.90;;;0.60;;
679;SDS011;322;48.846;9.230;2023-11-19T05:39:06;5.60;;;0.40;;
679;SDS011;322;48.846;9.230;2023-11-19T05:41:34;5.73;;;0.47;;
679;SDS011;322;48.846;9.230;2023-11-19T05:44:02;5.70;;;0.40;;
679;SDS011;322;48.846;9.230;2023-11-19T05:46:30;5.60;;;0.30;;
679;SDS011;322;48.846;9.230;2023-11-19T05:49:00;5.60;;;0.40;;
679;SDS011;322;48.846;9.230;2023-11-19T05:51:28;5.60;;;0.40;;
679;SDS011;322;48.846;9.230;2023-11-19T05:53:56;6.00;;;0.50;;
679;SDS011;322;48.846;9.230;2023-11-19T05:56:24;5.90;;;0.60;;
679;SDS011;322;48.846;9.230;2023-11-19T05:58:58;5.90;;;0.83;;
679;SDS011;322;48.846;9.230;2023-11-19T06:01:27;5.60;;;0.40;;
679;SDS011;322;48.846;9.230;2023-11-19T06:03:55;6.17;;;0.40;;
679;SDS011;322;48.846;9.230;2023-11-19T06:06:24;6.27;;;0.40;;
679;SDS011;322;48.846;9.230;2023-11-19T06:08:52;5.80;;;0.40;;
679;SDS011;322;48.846;9.230;2023-11-19T06:11:21;6.73;;;0.60;;
679;SDS011;322;48.846;9.230;2023-11-19T06:13:49;5.50;;;0.33;;
679;SDS011;322;48.846;9.230;2023-11-19T06:16:17;5.80;;;0.40;;
679;SDS011;322;48.846;9.230;2023-11-19T06:18:45;6.00;;;0.40;;
679;SDS011;322;48.846;9.230;2023-11-19T06:21:14;5.40;;;0.40;;
679;SDS011;322;48.846;9.230;2023-11-19T06:23:43;5.70;;;0.50;;
679;SDS011;322;48.846;9.230;2023-11-19T06:26:11;6.23;;;0.50;;
679;SDS011;322;48.846;9.230;2023-11-19T06:28:40;5.80;;;0.37;;
679;SDS011;322;48.846;9.230;2023-11-19T06:31:08;5.80;;;0.47;;
679;SDS011;322;48.846;9.230;2023-11-19T06:33:36;5.57;;;0.30;;
679;SDS011;322;48.846;9.230;2023-11-19T06:36:04;5.80;;;0.50;;
679;SDS011;322;48.846;9.230;2023-11-19T06:38:33;6.23;;;0.30;;
679;SDS011;322;48.846;9.230;2023-11-19T06:41:04;5.60;;;0.40;;
679;SDS011;322;48.846;9.230;2023-11-19T06:43:34;5.60;;;0.50;;
679;SDS011;322;48.846;9.230;2023-11-19T06:46:05;5.60;;;0.40;;
679;SDS011;322;48.846;9.230;2023-11-19T06:48:41;5.70;;;0.40;;
679;SDS011;322;48.846;9.230;2023-11-19T06:51:10;5.50;;;0.30;;
679;SDS011;322;48.846;9.230;2023-11-19T06:53:38;5.60;;;0.50;;
679;SDS011;322;48.846;9.230;2023-11-19T06:56:18;5.60;;;0.37;;
679;SDS011;322;48.846;9.230;2023-11-19T06:58:47;6.33;;;0.40;;
679;SDS011;322;48.846;9.230;2023-11-19T07:01:15;5.70;;;0.50;;
679;SDS011;322;48.846;9.230;2023-11-19T07:03:44;5.80;;;0.40;;
679;SDS011;322;48.846;9.230;2023-11-19T07:06:13;5.80;;;0.50;;
679;SDS011;322;48.846;9.230;2023-11-19T07:08:41;6.57;;;0.70;;
679;SDS011;322;48.846;9.230;2023-11-19T07:11:11;5.80;;;0.40;;
679;SDS011;322;48.846;9.230;2023-11-19T07:13:41;5.90;;;0.40;;
679;SDS011;322;48.846;9.230;2023-11-19T07:16:09;5.73;;;0.60;;
679;SDS011;322;48.846;9.230;2023-11-19T07:18:37;5.73;;;0.50;;
679;SDS011;322;48.846;9.230;2023-11-19T07:21:05;5.80;;;0.63;;
679;SDS011;322;48.846;9.230;2023-11-19T07:23:36;5.77;;;0.60;;
679;SDS011;322;48.846;9.230;2023-11-19T07:26:05;5.87;;;0.50;;
679;SDS011;322;48.846;9.230;2023-11-19T07:28:35;5.50;;;0.40;;
679;SDS011;322;48.846;9.230;2023-11-19T07:31:05;5.73;;;0.60;;
679;SDS011;322;48.846;9.230;2023-11-19T07:33:34;6.27;;;0.40;;
679;SDS011;322;48.846;9.230;2023-11-19T07:36:02;5.63;;;0.43;;
679;SDS011;322;48.846;9.230;2023-11-19T07:38:30;5.57;;;0.50;;
679;SDS011;322;48.846;9.230;2023-11-19T07:40:58;5.77;;;0.50;;
679;SDS011;322;48.846;9.230;2023-11-19T07:43:26;6.70;;;0.50;;
679;SDS011;322;48.846;9.230;2023-11-19T07:45:54;5.70;;;0.60;;
679;SDS011;322;48.846;9.230;2023-11-19T07:48:26;7.53;;;0.57;;
679;SDS011;322;48.846;9.230;2023-11-19T07:50:54;6.87;;;0.70;;
679;SDS011;322;48.846;9.230;2023-11-19T07:53:23;5.80;;;0.57;;
679;SDS011;322;48.846;9.230;2023-11-19T07:55:51;5.60;;;0.43;;
679;SDS011;322;48.846;9.230;2023-11-19T07:58:19;6.00;;;0.53;;
679;SDS011;322;48.846;9.230;2023-11-19T08:00:47;6.80;;;0.67;;
679;SDS011;322;48.846;9.230;2023-11-19T08:03:15;5.63;;;0.50;;
679;SDS011;322;48.846;9.230;2023-11-19T08:05:44;7.50;;;0.70;;
679;SDS011;322;48.846;9.230;2023-11-19T08:08:12;5.87;;;0.63;;
679;SDS011;322;48.846;9.230;2023-11-19T08:10:40;5.70;;;0.40;;
679;SDS011;322;48.846;9.230;2023-11-19T08:13:09;5.67;;;0.50;;
679;SDS011;322;48.846;9.230;2023-11-19T08:15:37;5.73;;;0.57;;
679;SDS011;322;48.846;9.230;2023-11-19T08:18:06;5.90;;;0.63;;
679;SDS011;322;48.846;9.230;2023-11-19T08:20:35;5.73;;;0.70;;
679;SDS011;322;48.846;9.230;2023-11-19T08:23:04;5.70;;;0.50;;
679;SDS011;322;48.846;9.230;2023-11-19T08:25:32;5.53;;;0.40;;
679;SDS011;322;48.846;9.230;2023-11-19T08:28:00;5.53;;;0.40;;
679;SDS011;322;48.846;9.230;2023-11-19T08:30:29;5.80;;;0.60;;
679;SDS011;322;48.846;9.230;2023-11-19T08:32:57;5.57;;;0.43;;
679;SDS011;322;48.846;9.230;2023-11-19T08:35:29;5.60;;;0.40;;
679;SDS011;322;48.846;9.230;2023-11-19T08:37:57;5.90;;;0.50;;
679;SDS011;322;48.846;9.230;2023-11-19T08:40:27;5.90;;;0.60;;
679;SDS011;322;48.846;9.230;2023-11-19T08:42:56;5.80;;;0.50;;
679;SDS011;322;48.846;9.230;2023-11-19T08:45:24;6.07;;;0.80;;
679;SDS011;322;48.846;9.230;2023-11-19T08:47:52;6.27;;;0.77;;
679;SDS011;322;48.846;9.230;2023-11-19T08:50:20;9.40;;;0.57;;
679;SDS011;322;48.846;9.230;2023-11-19T08:52:49;5.57;;;0.50;;
679;SDS011;322;48.846;9.230;2023-11-19T08:55:17;5.80;;;0.50;;
679;SDS011;322;48.846;9.230;2023-11-19T08:57:46;6.53;;;0.70;;
679;SDS011;322;48.846;9.230;2023-11-19T09:00:14;14.20;;;2.93;;
679;SDS011;322;48.846;9.230;2023-11-19T09:02:44;6.43;;;0.80;;
679;SDS011;322;48.846;9.230;2023-11-19T09:05:12;6.33;;;0.83;;
679;SDS011;322;48.846;9.230;2023-11-19T09:07:40;6.17;;;0.40;;
679;SDS011;322;48.846;9.230;2023-11-19T09:10:08;7.90;;;1.00;;
679;SDS011;322;48.846;9.230;2023-11-19T09:12:37;6.83;;;0.90;;
679;SDS011;322;48.846;9.230;2023-11-19T09:15:07;6.20;;;0.77;;
679;SDS011;322;48.846;9.230;2023-11-19T09:17:37;5.70;;;0.60;;
679;SDS011;322;48.846;9.230;2023-11-19T09:20:05;7.77;;;0.70;;
679;SDS011;322;48.846;9.230;2023-11-19T09:22:35;7.47;;;0.67;;
679;SDS011;322;48.846;9.230;2023-11-19T09:25:03;5.80;;;0.60;;
679;SDS011;322;48.846;9.230;2023-11-19T09:27:31;5.87;;;0.50;;
679;SDS011;322;48.846;9.230;2023-11-19T09:29:59;6.50;;;1.07;;
679;SDS011;322;48.846;9.230;2023-11-19T09:32:29;6.17;;;0.60;;
679;SDS011;322;48.846;9.230;2023-11-19T09:34:57;5.93;;;0.60;;
679;SDS011;322;48.846;9.230;2023-11-19T09:37:25;6.10;;;0.60;;
679;SDS011;322;48.846;9.230;2023-11-19T09:39:53;6.17;;;0.53;;
679;SDS011;322;48.846;9.230;2023-11-19T09:42:21;6.17;;;0.70;;
679;SDS011;322;48.846;9.230;2023-11-19T09:44:48;7.47;;;0.80;;
679;SDS011;322;48.846;9.230;2023-11-19T09:47:16;6.30;;;0.70;;
679;SDS011;322;48.846;9.230;2023-11-19T09:49:47;6.67;;;0.83;;
679;SDS011;322;48.846;9.230;2023-11-19T09:52:16;5.90;;;0.50;;
679;SDS011;322;48.846;9.230;2023-11-19T09:54:45;6.57;;;0.60;;
679;SDS011;322;48.846;9.230;2023-11-19T09:57:13;6.60;;;0.80;;
679;SDS011;322;48.846;9.230;2023-11-19T09:59:43;6.00;;;0.50;;
679;SDS011;322;48.846;9.230;2023-11-19T10:02:13;7.00;;;0.60;;
679;SDS011;322;48.846;9.230;2023-11-19T10:04:43;6.67;;;0.80;;
679;SDS011;322;48.846;9.230;2023-11-19T10:07:15;7.27;;;1.00;;
679;SDS011;322;48.846;9.230;2023-11-19T10:09:43;7.23;;;1.03;;
679;SDS011;322;48.846;9.230;2023-11-19T10:12:12;6.10;;;0.80;;
679;SDS011;322;48.846;9.230;2023-11-19T10:14:40;6.50;;;0.87;;
679;SDS011;322;48.846;9.230;2023-11-19T10:17:10;6.30;;;0.90;;
679;SDS011;322;48.846;9.230;2023-11-19T10:19:39;6.30;;;0.70;;
679;SDS011;322;48.846;9.230;2023-11-19T10:22:07;6.20;;;0.70;;
679;SDS011;322;48.846;9.230;2023-11-19T10:24:37;6.00;;;0.70;;
679;SDS011;322;48.846;9.230;2023-11-19T10:27:14;5.87;;;0.60;;
679;SDS011;322;48.846;9.230;2023-11-19T10:29:44;6.70;;;0.70;;
679;SDS011;322;48.846;9.230;2023-11-19T10:32:13;8.00;;;1.00;;
679;SDS011;322;48.846;9.230;2023-11-19T10:34:52;6.03;;;0.80;;
679;SDS011;322;48.846;9.230;2023-11-19T10:37:31;5.90;;;0.67;;
679;SDS011;322;48.846;9.230;2023-11-19T10:40:03;8.93;;;0.70;;
679;SDS011;322;48.846;9.230;2023-11-19T10:42:32;6.57;;;0.50;;
679;SDS011;322;48.846;9.230;2023-11-19T10:45:00;7.40;;;0.60;;
679;SDS011;322;48.846;9.230;2023-11-19T10:47:28;5.63;;;0.50;;
679;SDS011;322;48.846;9.230;2023-11-19T10:50:00;6.67;;;0.70;;
679;SDS011;322;48.846;9.230;2023-11-19T10:52:28;7.23;;;0.97;;
679;SDS011;322;48.846;9.230;2023-11-19T10:54:56;6.40;;;0.60;;
679;SDS011;322;48.846;9.230;2023-11-19T10:57:30;8.70;;;0.80;;
679;SDS011;322;48.846;9.230;2023-11-19T11:00:01;6.83;;;0.63;;
679;SDS011;322;48.846;9.230;2023-11-19T11:02:37;12.47;;;1.60;;
679;SDS011;322;48.846;9.230;2023-11-19T11:05:09;6.73;;;0.60;;
679;SDS011;322;48.846;9.230;2023-11-19T11:07:38;5.80;;;0.70;;
679;SDS011;322;48.846;9.230;2023-11-19T11:10:08;5.70;;;0.60;;
679;SDS011;322;48.846;9.230;2023-11-19T11:12:40;6.50;;;1.20;;
679;SDS011;322;48.846;9.230;2023-11-19T11:15:09;6.27;;;0.70;;
679;SDS011;322;48.846;9.230;2023-11-19T11:17:39;8.80;;;0.80;;
679;SDS011;322;48.846;9.230;2023-11-19T11:20:09;7.13;;;0.70;;
679;SDS011;322;48.846;9.230;2023-11-19T11:22:39;6.40;;;0.50;;
679;SDS011;322;48.846;9.230;2023-11-19T11:25:19;6.53;;;0.50;;
679;SDS011;322;48.846;9.230;2023-11-19T11:28:03;7.50;;;0.93;;
679;SDS011;322;48.846;9.230;2023-11-19T11:30:45;6.47;;;0.90;;
679;SDS011;322;48.846;9.230;2023-11-19T11:33:24;6.17;;;0.80;;
679;SDS011;322;48.846;9.230;2023-11-19T11:36:05;7.53;;;1.90;;
679;SDS011;322;48.846;9.230;2023-11-19T11:38:40;7.33;;;0.90;;
679;SDS011;322;48.846;9.230;2023-11-19T11:41:15;9.00;;;0.83;;
679;SDS011;322;48.846;9.230;2023-11-19T11:43:48;6.93;;;1.00;;
679;SDS011;322;48.846;9.230;2023-11-19T11:49:27;7.00;;;0.80;;
679;SDS011;322;48.846;9.230;2023-11-19T11:51:57;6.57;;;0.70;;
679;SDS011;322;48.846;9.230;2023-11-19T11:54:26;8.33;;;0.90;;
679;SDS011;322;48.846;9.230;2023-11-19T11:57:03;7.50;;;0.70;;
679;SDS011;322;48.846;9.230;2023-11-19T11:59:48;6.00;;;0.60;;
679;SDS011;322;48.846;9.230;2023-11-19T12:02:17;8.97;;;0.70;;
679;SDS011;322;48.846;9.230;2023-11-19T12:04:47;6.47;;;0.90;;
679;SDS011;322;48.846;9.230;2023-11-19T12:07:17;7.63;;;0.87;;
679;SDS011;322;48.846;9.230;2023-11-19T12:09:51;6.47;;;0.67;;
679;SDS011;322;48.846;9.230;2023-11-19T12:12:22;6.67;;;0.80;;
679;SDS011;322;48.846;9.230;2023-11-19T12:15:02;6.73;;;0.80;;
679;SDS011;322;48.846;9.230;2023-11-19T12:17:37;7.50;;;0.90;;
679;SDS011;322;48.846;9.230;2023-11-19T12:20:11;6.30;;;0.70;;
679;SDS011;322;48.846;9.230;2023-11-19T12:22:39;7.67;;;0.73;;
679;SDS011;322;48.846;9.230;2023-11-19T12:25:09;6.20;;;0.97;;
679;SDS011;322;48.846;9.230;2023-11-19T12:27:39;6.23;;;0.60;;
679;SDS011;322;48.846;9.230;2023-11-19T12:30:10;5.90;;;0.67;;
679;SDS011;322;48.846;9.230;2023-11-19T12:32:39;6.60;;;0.70;;
679;SDS011;322;48.846;9.230;2023-11-19T12:35:08;6.27;;;0.67;;
679;SDS011;322;48.846;9.230;2023-11-19T12:37:39;7.20;;;0.90;;
679;SDS011;322;48.846;9.230;2023-11-19T12:40:16;7.10;;;0.70;;
679;SDS011;322;48.846;9.230;2023-11-19T12:42:46;6.00;;;0.50;;
679;SDS011;322;48.846;9.230;2023-11-19T12:45:16;5.93;;;0.80;;
679;SDS011;322;48.846;9.230;2023-11-19T12:47:45;6.70;;;0.60;;
679;SDS011;322;48.846;9.230;2023-11-19T12:50:15;8.03;;;0.70;;
679;SDS011;322;48.846;9.230;2023-11-19T12:52:54;7.50;;;0.80;;
679;SDS011;322;48.846;9.230;2023-11-19T12:55:24;6.00;;;0.60;;
679;SDS011;322;48.846;9.230;2023-11-19T12:57:55;6.10;;;0.43;;
679;SDS011;322;48.846;9.230;2023-11-19T13:00:26;7.30;;;0.80;;
679;SDS011;322;48.846;9.230;2023-11-19T13:02:56;6.40;;;0.80;;
679;SDS011;322;48.846;9.230;2023-11-19T13:05:26;6.13;;;0.63;;
679;SDS011;322;48.846;9.230;2023-11-19T13:08:00;6.87;;;0.70;;
679;SDS011;322;48.846;9.230;2023-11-19T13:10:29;6.00;;;0.73;;
679;SDS011;322;48.846;9.230;2023-11-19T13:13:04;7.20;;;0.50;;
679;SDS011;322;48.846;9.230;2023-11-19T13:15:36;7.70;;;0.60;;
679;SDS011;322;48.846;9.230;2023-11-19T13:18:04;5.60;;;0.40;;
679;SDS011;322;48.846;9.230;2023-11-19T13:20:33;5.60;;;0.70;;
679;SDS011;322;48.846;9.230;2023-11-19T13:23:01;6.10;;;0.63;;
679;SDS011;322;48.846;9.230;2023-11-19T13:25:30;6.27;;;0.70;;
679;SDS011;322;48.846;9.230;2023-11-19T13:27:59;6.10;;;0.80;;
679;SDS011;322;48.846;9.230;2023-11-19T13:30:28;6.63;;;0.90;;
679;SDS011;322;48.846;9.230;2023-11-19T13:32:57;6.10;;;0.70;;
679;SDS011;322;48.846;9.230;2023-11-19T13:35:27;6.40;;;0.70;;
679;SDS011;322;48.846;9.230;2023-11-19T13:37:55;6.63;;;0.80;;
679;SDS011;322;48.846;9.230;2023-11-19T13:40:24;6.00;;;0.70;;
679;SDS011;322;48.846;9.230;2023-11-19T13:42:52;7.20;;;0.70;;
679;SDS011;322;48.846;9.230;2023-11-19T13:45:20;5.50;;;0.50;;
679;SDS011;322;48.846;9.230;2023-11-19T13:47:48;7.20;;;0.80;;
679;SDS011;322;48.846;9.230;2023-11-19T13:50:17;6.10;;;0.63;;
679;SDS011;322;48.846;9.230;2023-11-19T13:52:46;6.70;;;0.63;;
679;SDS011;322;48.846;9.230;2023-11-19T13:55:14;9.70;;;0.80;;
679;SDS011;322;48.846;9.230;2023-11-19T13:57:42;6.30;;;0.90;;
679;SDS011;322;48.846;9.230;2023-11-19T14:00:11;5.83;;;0.70;;
679;SDS011;322;48.846;9.230;2023-11-19T14:02:41;5.70;;;0.70;;
679;SDS011;322;48.846;9.230;2023-11-19T14:05:09;6.47;;;0.63;;
679;SDS011;322;48.846;9.230;2023-11-19T14:07:39;6.87;;;0.90;;
679;SDS011;322;48.846;9.230;2023-11-19T14:10:08;5.97;;;0.67;;
679;SDS011;322;48.846;9.230;2023-11-19T14:12:37;7.20;;;0.53;;
679;SDS011;322;48.846;9.230;2023-11-19T14:15:06;6.30;;;0.70;;
679;SDS011;322;48.846;9.230;2023-11-19T14:17:35;6.17;;;0.70;;
679;SDS011;322;48.846;9.230;2023-11-19T14:20:04;7.20;;;0.90;;
679;SDS011;322;48.846;9.230;2023-11-19T14:22:40;6.40;;;0.63;;
679;SDS011;322;48.846;9.230;2023-11-19T14:25:09;6.30;;;1.73;;
679;SDS011;322;48.846;9.230;2023-11-19T14:27:37;5.63;;;0.80;;
679;SDS011;322;48.846;9.230;2023-11-19T14:30:06;6.73;;;0.83;;
679;SDS011;322;48.846;9.230;2023-11-19T14:32:35;6.33;;;0.57;;
679;SDS011;322;48.846;9.230;2023-11-19T14:35:04;6.00;;;0.60;;
679;SDS011;322;48.846;9.230;2023-11-19T14:37:33;6.10;;;0.70;;
679;SDS011;322;48.846;9.230;2023-11-19T14:40:02;7.50;;;0.70;;
679;SDS011;322;48.846;9.230;2023-11-19T14:42:32;6.10;;;0.60;;
679;SDS011;322;48.846;9.230;2023-11-19T14:45:00;9.37;;;2.00;;
679;SDS011;322;48.846;9.230;2023-11-19T14:47:28;6.67;;;0.80;;
679;SDS011;322;48.846;9.230;2023-11-19T14:49:57;6.93;;;0.77;;
679;SDS011;322;48.846;9.230;2023-11-19T14:52:25;6.10;;;0.60;;
679;SDS011;322;48.846;9.230;2023-11-19T14:54:52;8.00;;;1.10;;
679;SDS011;322;48.846;9.230;2023-11-19T14:57:24;6.77;;;1.17;;
679;SDS011;322;48.846;9.230;2023-11-19T14:59:52;7.20;;;1.50;;
679;SDS011;322;48.846;9.230;2023-11-19T15:02:20;7.43;;;1.00;;
679;SDS011;322;48.846;9.230;2023-11-19T15:04:48;6.33;;;1.03;;
679;SDS011;322;48.846;9.230;2023-11-19T15:07:16;6.10;;;0.90;;
679;SDS011;322;48.846;9.230;2023-11-19T15:09:44;8.13;;;1.13;;
679;SDS011;322;48.846;9.230;2023-11-19T15:12:12;5.80;;;0.90;;
679;SDS011;322;48.846;9.230;2023-11-19T15:14:42;6.20;;;0.90;;
679;SDS011;322;48.846;9.230;2023-11-19T15:17:09;6.93;;;0.80;;
679;SDS011;322;48.846;9.230;2023-11-19T15:19:37;13.53;;;1.50;;
679;SDS011;322;48.846;9.230;2023-11-19T15:22:06;6.00;;;0.70;;
679;SDS011;322;48.846;9.230;2023-11-19T15:24:37;5.73;;;0.67;;
679;SDS011;322;48.846;9.230;2023-11-19T15:27:05;5.60;;;0.60;;
679;SDS011;322;48.846;9.230;2023-11-19T15:29:38;6.03;;;0.93;;
679;SDS011;322;48.846;9.230;2023-11-19T15:32:07;7.53;;;1.27;;
679;SDS011;322;48.846;9.230;2023-11-19T15:34:35;6.13;;;0.50;;
679;SDS011;322;48.846;9.230;2023-11-19T15:37:04;6.47;;;0.83;;
679;SDS011;322;48.846;9.230;2023-11-19T15:39:32;5.60;;;0.57;;
679;SDS011;322;48.846;9.230;2023-11-19T15:42:02;7.70;;;0.93;;
679;SDS011;322;48.846;9.230;2023-11-19T15:44:30;8.20;;;0.60;;
679;SDS011;322;48.846;9.230;2023-11-19T15:46:58;5.73;;;0.50;;
679;SDS011;322;48.846;9.230;2023-11-19T15:49:27;5.97;;;0.70;;
679;SDS011;322;48.846;9.230;2023-11-19T15:51:55;5.80;;;0.63;;
679;SDS011;322;48.846;9.230;2023-11-19T15:54:23;6.73;;;0.70;;
679;SDS011;322;48.846;9.230;2023-11-19T15:56:51;5.80;;;0.77;;
679;SDS011;322;48.846;9.230;2023-11-19T15:59:19;8.47;;;1.70;;
679;SDS011;322;48.846;9.230;2023-11-19T16:01:47;9.40;;;0.93;;
679;SDS011;322;48.846;9.230;2023-11-19T16:04:15;5.83;;;0.80;;